createdAt,value
2024-01-20T00:01:24.865Z,100.00
2024-01-20T00:03:53.349Z,100.00
2024-01-20T00:06:20.956Z,100.00
2024-01-20T00:08:48.484Z,100.00
2024-01-20T00:11:16.178Z,100.00
2024-01-20T00:13:43.809Z,100.00
2024-01-20T00:16:11.511Z,100.00
2024-01-20T00:18:38.980Z,100.00
2024-01-20T00:21:06.819Z,100.00
2024-01-20T00:23:34.420Z,100.00
2024-01-20T00:26:01.960Z,100.00
2024-01-20T00:28:29.564Z,100.00
2024-01-20T00:30:57.039Z,100.00
2024-01-20T00:33:24.764Z,100.00
2024-01-20T00:35:52.183Z,100.00
2024-01-20T00:38:19.685Z,100.00
2024-01-20T00:40:47.008Z,100.00
2024-01-20T00:43:15.082Z,100.00
2024-01-20T00:45:42.572Z,100.00
2024-01-20T00:48:10.441Z,100.00
2024-01-20T00:50:37.779Z,100.00
2024-01-20T00:53:05.172Z,100.00
2024-01-20T00:55:32.511Z,100.00
2024-01-20T00:58:00.098Z,100.00
2024-01-20T01:00:27.354Z,100.00
2024-01-20T01:02:55.339Z,100.00
2024-01-20T01:05:22.758Z,100.00
2024-01-20T01:07:50.229Z,100.00
2024-01-20T01:10:18.005Z,100.00
2024-01-20T01:12:45.465Z,100.00
2024-01-20T01:15:13.092Z,100.00
2024-01-20T01:17:40.542Z,100.00
2024-01-20T01:20:10.325Z,100.00
2024-01-20T01:22:37.704Z,100.00
2024-01-20T01:25:05.720Z,100.00
2024-01-20T01:27:32.919Z,100.00
2024-01-20T01:30:00.268Z,99.87
2024-01-20T01:32:27.711Z,98.27
2024-01-20T01:34:55.086Z,99.07
2024-01-20T01:37:22.609Z,99.43
2024-01-20T01:39:50.088Z,96.96
2024-01-20T01:42:17.318Z,100.00
2024-01-20T01:44:44.645Z,100.00
2024-01-20T01:47:12.318Z,100.00
2024-01-20T01:52:08.104Z,100.00
2024-01-20T01:54:35.646Z,100.00
2024-01-20T01:57:04.428Z,100.00
2024-01-20T01:59:32.773Z,100.00
2024-01-20T02:02:00.020Z,100.00
2024-01-20T02:04:27.364Z,100.00
2024-01-20T02:06:54.904Z,100.00
2024-01-20T02:09:22.736Z,100.00
2024-01-20T02:11:50.620Z,100.00
2024-01-20T02:14:20.136Z,100.00
2024-01-20T02:16:47.381Z,100.00
2024-01-20T02:19:15.024Z,100.00
2024-01-20T02:21:42.548Z,100.00
2024-01-20T02:24:10.896Z,100.00
2024-01-20T02:26:38.328Z,100.00
2024-01-20T02:29:05.728Z,100.00
2024-01-20T02:31:33.035Z,100.00
2024-01-20T02:34:01.516Z,100.00
2024-01-20T02:36:29.032Z,100.00
2024-01-20T02:38:58.105Z,100.00
2024-01-20T02:41:25.570Z,100.00
2024-01-20T02:43:52.854Z,100.00
2024-01-20T02:46:20.153Z,100.00
2024-01-20T02:48:47.644Z,100.00
2024-01-20T02:51:15.094Z,100.00
2024-01-20T02:53:42.369Z,100.00
2024-01-20T02:56:09.761Z,100.00
2024-01-20T02:58:37.088Z,100.00
2024-01-20T03:03:53.463Z,100.00
2024-01-20T03:06:20.811Z,100.00
2024-01-20T03:08:48.239Z,100.00
2024-01-20T03:11:15.753Z,100.00
2024-01-20T03:13:43.287Z,100.00
2024-01-20T03:16:11.261Z,100.00
2024-01-20T03:18:38.622Z,100.00
2024-01-20T03:21:06.394Z,100.00
2024-01-20T03:23:34.458Z,100.00
2024-01-20T03:26:09.951Z,100.00
2024-01-20T03:28:42.054Z,100.00
2024-01-20T03:31:09.417Z,100.00
2024-01-20T03:33:36.768Z,100.00
2024-01-20T03:36:04.967Z,100.00
2024-01-20T03:38:32.327Z,100.00
2024-01-20T03:40:59.623Z,100.00
2024-01-20T03:43:27.557Z,100.00
2024-01-20T03:45:54.763Z,100.00
2024-01-20T03:48:22.528Z,100.00
2024-01-20T03:50:50.190Z,100.00
2024-01-20T03:53:17.617Z,100.00
2024-01-20T03:55:44.889Z,100.00
2024-01-20T03:58:12.408Z,100.00
2024-01-20T04:00:39.820Z,100.00
2024-01-20T04:03:07.237Z,100.00
2024-01-20T04:05:34.557Z,100.00
2024-01-20T04:08:01.871Z,100.00
2024-01-20T04:10:29.314Z,100.00
2024-01-20T04:12:56.672Z,100.00
2024-01-20T04:15:24.089Z,100.00
2024-01-20T04:17:53.897Z,100.00
2024-01-20T04:20:21.396Z,100.00
2024-01-20T04:22:48.633Z,100.00
2024-01-20T04:25:16.155Z,100.00
2024-01-20T04:27:43.472Z,100.00
2024-01-20T04:30:14.579Z,100.00
2024-01-20T04:32:42.085Z,100.00
2024-01-20T04:35:10.062Z,100.00
2024-01-20T04:37:39.901Z,100.00
2024-01-20T04:40:08.053Z,100.00
2024-01-20T04:42:36.132Z,100.00
2024-01-20T04:45:05.385Z,100.00
2024-01-20T04:47:34.171Z,100.00
2024-01-20T04:50:01.576Z,100.00
2024-01-20T04:52:28.833Z,100.00
2024-01-20T04:54:56.230Z,100.00
2024-01-20T04:57:23.629Z,100.00
2024-01-20T04:59:50.983Z,100.00
2024-01-20T05:02:19.173Z,100.00
2024-01-20T05:04:46.623Z,100.00
2024-01-20T05:07:13.976Z,100.00
2024-01-20T05:09:41.281Z,100.00
2024-01-20T05:12:08.733Z,100.00
2024-01-20T05:14:36.660Z,100.00
2024-01-20T05:17:07.400Z,100.00
2024-01-20T05:19:38.221Z,100.00
2024-01-20T05:22:05.776Z,100.00
2024-01-20T05:24:33.125Z,100.00
2024-01-20T05:27:00.557Z,100.00
2024-01-20T05:29:27.845Z,100.00
2024-01-20T05:31:55.197Z,100.00
2024-01-20T05:34:22.656Z,100.00
2024-01-20T05:36:50.005Z,100.00
2024-01-20T05:39:17.416Z,100.00
2024-01-20T05:41:44.937Z,100.00
2024-01-20T05:44:12.415Z,100.00
2024-01-20T05:46:41.852Z,100.00
2024-01-20T05:49:09.868Z,100.00
2024-01-20T05:51:37.519Z,100.00
2024-01-20T05:54:05.279Z,100.00
2024-01-20T05:56:32.903Z,100.00
2024-01-20T05:59:00.272Z,100.00
2024-01-20T06:01:27.936Z,100.00
2024-01-20T06:03:55.429Z,100.00
2024-01-20T06:06:23.006Z,100.00
2024-01-20T06:08:50.507Z,100.00
2024-01-20T06:11:18.004Z,100.00
2024-01-20T06:13:45.425Z,100.00
2024-01-20T06:16:14.061Z,100.00
2024-01-20T06:18:41.505Z,100.00
2024-01-20T06:21:09.476Z,100.00
2024-01-20T06:23:38.433Z,100.00
2024-01-20T06:26:05.858Z,100.00
2024-01-20T06:28:33.396Z,100.00
2024-01-20T06:31:01.785Z,100.00
2024-01-20T06:33:29.316Z,100.00
2024-01-20T06:35:56.798Z,100.00
2024-01-20T06:38:24.180Z,100.00
2024-01-20T06:40:51.673Z,100.00
2024-01-20T06:43:19.154Z,100.00
2024-01-20T06:45:47.468Z,100.00
2024-01-20T06:48:15.134Z,100.00
2024-01-20T06:50:44.751Z,100.00
2024-01-20T06:53:12.815Z,100.00
2024-01-20T06:55:40.368Z,100.00
2024-01-20T06:58:07.960Z,100.00
2024-01-20T07:00:35.781Z,100.00
2024-01-20T07:03:05.133Z,100.00
2024-01-20T07:05:32.678Z,100.00
2024-01-20T07:08:00.247Z,100.00
2024-01-20T07:10:27.603Z,99.88
2024-01-20T07:12:55.137Z,99.02
2024-01-20T07:15:22.733Z,99.79
2024-01-20T07:17:50.238Z,99.58
2024-01-20T07:20:17.886Z,99.16
2024-01-20T07:22:45.425Z,97.99
2024-01-20T07:25:13.241Z,97.26
2024-01-20T07:27:41.040Z,98.07
2024-01-20T07:30:09.948Z,96.45
2024-01-20T07:32:42.745Z,95.56
2024-01-20T07:35:11.258Z,91.59
2024-01-20T07:37:38.838Z,89.86
2024-01-20T07:40:07.165Z,88.25
2024-01-20T07:42:35.936Z,84.63
2024-01-20T07:45:03.992Z,81.59
2024-01-20T07:47:31.963Z,80.82
2024-01-20T07:49:59.344Z,81.67
2024-01-20T07:52:26.797Z,79.18
2024-01-20T07:54:54.258Z,77.31
2024-01-20T07:57:21.664Z,72.51
2024-01-20T07:59:49.289Z,69.80
2024-01-20T08:02:16.774Z,66.82
2024-01-20T08:04:44.107Z,62.89
2024-01-20T08:07:11.660Z,58.34
2024-01-20T08:09:39.320Z,52.38
2024-01-20T08:12:07.309Z,46.29
2024-01-20T08:14:34.666Z,44.05
2024-01-20T08:17:02.015Z,43.80
2024-01-20T08:19:29.799Z,43.35
2024-01-20T08:21:57.220Z,41.52
2024-01-20T08:24:24.494Z,42.02
2024-01-20T08:26:52.853Z,39.82
2024-01-20T08:29:23.174Z,39.04
2024-01-20T08:31:50.574Z,36.58
2024-01-20T08:34:17.899Z,34.50
2024-01-20T08:36:45.386Z,36.30
2024-01-20T08:39:12.795Z,35.96
2024-01-20T08:41:40.221Z,37.18
2024-01-20T08:44:07.528Z,36.11
2024-01-20T08:46:34.844Z,34.54
2024-01-20T08:49:02.631Z,34.04
2024-01-20T08:51:30.457Z,34.74
2024-01-20T08:53:59.551Z,33.37
2024-01-20T08:56:27.028Z,32.89
2024-01-20T08:58:54.327Z,33.96
2024-01-20T09:01:21.808Z,33.04
2024-01-20T09:03:49.344Z,33.19
2024-01-20T09:06:17.177Z,32.26
2024-01-20T09:08:44.800Z,32.02
2024-01-20T09:11:12.270Z,32.86
2024-01-20T09:13:39.710Z,31.48
2024-01-20T09:16:07.698Z,33.41
2024-01-20T09:18:35.519Z,32.40
2024-01-20T09:21:02.960Z,32.62
2024-01-20T09:23:30.448Z,33.20
2024-01-20T09:25:57.832Z,33.29
2024-01-20T09:28:25.577Z,33.88
2024-01-20T09:30:52.877Z,34.07
2024-01-20T09:33:20.547Z,33.92
2024-01-20T09:35:48.318Z,33.19
2024-01-20T09:38:15.823Z,32.14
2024-01-20T09:40:43.440Z,29.31
2024-01-20T09:43:11.142Z,29.49
2024-01-20T09:45:41.424Z,29.72
2024-01-20T09:48:09.423Z,29.80
2024-01-20T09:50:37.129Z,30.86
2024-01-20T09:53:18.077Z,31.10
2024-01-20T09:55:47.238Z,33.34
2024-01-20T09:58:18.524Z,34.73
2024-01-20T10:00:46.301Z,35.44
2024-01-20T10:03:16.418Z,36.79
2024-01-20T10:05:44.026Z,37.46
2024-01-20T10:08:12.323Z,42.52
2024-01-20T10:10:39.660Z,44.52
2024-01-20T10:13:07.105Z,49.07
2024-01-20T10:15:35.369Z,51.11
2024-01-20T10:18:12.540Z,50.85
2024-01-20T10:20:40.310Z,52.06
2024-01-20T10:23:08.908Z,52.72
2024-01-20T10:25:36.724Z,52.87
2024-01-20T10:28:04.618Z,54.33
2024-01-20T10:30:32.243Z,54.47
2024-01-20T10:33:09.209Z,55.07
2024-01-20T10:35:39.789Z,56.91
2024-01-20T10:38:14.318Z,56.37
2024-01-20T10:40:44.518Z,53.93
2024-01-20T10:43:17.505Z,55.81
2024-01-20T10:46:02.449Z,54.97
2024-01-20T10:48:37.793Z,52.56
2024-01-20T10:51:12.949Z,53.33
2024-01-20T10:53:40.856Z,50.94
2024-01-20T10:56:09.510Z,48.49
2024-01-20T10:58:49.579Z,45.99
2024-01-20T11:01:17.795Z,42.54
2024-01-20T11:03:46.121Z,44.32
2024-01-20T11:06:21.891Z,41.48
2024-01-20T11:08:52.530Z,39.57
2024-01-20T11:11:21.666Z,38.73
2024-01-20T11:13:49.683Z,39.29
2024-01-20T11:16:22.883Z,40.20
2024-01-20T11:18:50.309Z,37.89
2024-01-20T11:21:20.463Z,34.36
2024-01-20T11:24:00.641Z,32.83
2024-01-20T11:26:38.758Z,33.52
2024-01-20T11:29:08.841Z,34.44
2024-01-20T11:31:36.731Z,34.80
2024-01-20T11:34:07.502Z,33.28
2024-01-20T11:36:36.265Z,34.38
2024-01-20T11:39:06.809Z,34.69
2024-01-20T11:41:34.827Z,34.43
2024-01-20T11:44:02.214Z,34.10
2024-01-20T11:46:29.742Z,34.42
2024-01-20T11:48:57.336Z,32.95
2024-01-20T11:51:25.008Z,33.57
2024-01-20T11:53:52.612Z,34.56
2024-01-20T11:56:20.015Z,33.36
2024-01-20T11:58:47.456Z,35.12
2024-01-20T12:01:15.421Z,36.42
2024-01-20T12:03:43.158Z,40.21
2024-01-20T12:06:13.879Z,40.70
2024-01-20T12:08:43.853Z,42.00
2024-01-20T12:11:29.434Z,41.56
2024-01-20T12:13:56.798Z,41.68
2024-01-20T12:16:24.243Z,39.10
2024-01-20T12:18:51.876Z,39.01
2024-01-20T12:21:19.439Z,39.34
2024-01-20T12:23:47.811Z,40.18
2024-01-20T12:26:16.170Z,39.90
2024-01-20T12:28:46.441Z,40.52
2024-01-20T12:31:16.830Z,40.11
2024-01-20T12:33:45.802Z,41.68
2024-01-20T12:36:13.352Z,42.08
2024-01-20T12:38:40.765Z,43.14
2024-01-20T12:41:08.317Z,41.50
2024-01-20T12:43:35.932Z,41.79
2024-01-20T12:46:03.396Z,41.69
2024-01-20T12:48:30.941Z,40.83
2024-01-20T12:50:59.162Z,42.71
2024-01-20T12:53:26.812Z,40.42
2024-01-20T12:55:54.299Z,40.91
2024-01-20T12:58:21.633Z,41.08
2024-01-20T13:00:49.530Z,42.12
2024-01-20T13:03:16.981Z,43.33
2024-01-20T13:05:46.267Z,46.53
2024-01-20T13:08:13.740Z,50.79
2024-01-20T13:10:43.057Z,52.40
2024-01-20T13:13:10.356Z,53.18
2024-01-20T13:15:37.826Z,56.19
2024-01-20T13:18:06.787Z,56.72
2024-01-20T13:20:34.070Z,59.03
2024-01-20T13:23:01.412Z,60.40
2024-01-20T13:25:29.973Z,63.32
2024-01-20T13:27:57.446Z,63.34
2024-01-20T13:30:24.729Z,63.62
2024-01-20T13:32:52.146Z,63.84
2024-01-20T13:35:19.695Z,66.43
2024-01-20T13:37:46.967Z,67.56
2024-01-20T13:40:14.789Z,68.02
2024-01-20T13:42:43.806Z,70.02
2024-01-20T13:45:11.578Z,70.53
2024-01-20T13:47:39.504Z,69.65
2024-01-20T13:50:07.617Z,69.43
2024-01-20T13:52:35.030Z,70.01
2024-01-20T13:55:02.436Z,70.41
2024-01-20T13:57:29.853Z,70.80
2024-01-20T13:59:57.444Z,72.36
2024-01-20T14:02:24.878Z,69.63
2024-01-20T14:04:52.247Z,69.63
2024-01-20T14:07:19.584Z,69.08
2024-01-20T14:09:47.019Z,68.95
2024-01-20T14:12:14.583Z,68.53
2024-01-20T14:14:41.877Z,68.87
2024-01-20T14:17:09.111Z,70.49
2024-01-20T14:19:39.211Z,70.10
2024-01-20T14:22:06.728Z,70.54
2024-01-20T14:24:34.271Z,70.17
2024-01-20T14:27:01.713Z,71.14
2024-01-20T14:29:29.748Z,70.76
2024-01-20T14:31:57.218Z,71.97
2024-01-20T14:34:24.815Z,71.14
2024-01-20T14:36:55.174Z,71.16
2024-01-20T14:39:23.825Z,70.78
2024-01-20T14:41:52.002Z,72.54
2024-01-20T14:44:19.404Z,72.85
2024-01-20T14:46:46.961Z,72.77
2024-01-20T14:49:14.773Z,73.51
2024-01-20T14:51:46.421Z,73.26
2024-01-20T14:54:17.263Z,73.01
2024-01-20T14:56:44.620Z,73.57
2024-01-20T14:59:11.858Z,74.42
2024-01-20T15:01:39.563Z,73.85
2024-01-20T15:04:07.367Z,74.19
2024-01-20T15:06:35.048Z,75.04
2024-01-20T15:09:03.737Z,75.40
2024-01-20T15:11:31.236Z,75.12
2024-01-20T15:13:58.705Z,75.74
2024-01-20T15:16:26.180Z,75.57
2024-01-20T15:18:53.790Z,76.17
2024-01-20T15:21:21.307Z,75.44
2024-01-20T15:23:48.667Z,75.06
2024-01-20T15:26:19.203Z,75.11
2024-01-20T15:28:46.563Z,74.79
2024-01-20T15:31:14.202Z,75.28
2024-01-20T15:33:41.642Z,76.03
2024-01-20T15:36:09.265Z,76.58
2024-01-20T15:38:36.672Z,75.56
2024-01-20T15:41:04.196Z,76.51
2024-01-20T15:43:31.657Z,76.24
2024-01-20T15:45:58.916Z,75.11
2024-01-20T15:48:26.437Z,75.30
2024-01-20T15:50:53.803Z,75.58
2024-01-20T15:53:21.084Z,76.14
2024-01-20T15:55:48.509Z,77.25
2024-01-20T15:58:16.066Z,74.39
2024-01-20T16:00:43.366Z,76.25
2024-01-20T16:03:11.300Z,74.08
2024-01-20T16:05:38.778Z,73.94
2024-01-20T16:08:06.435Z,75.02
2024-01-20T16:10:33.827Z,75.02
2024-01-20T16:13:02.473Z,73.48
2024-01-20T16:15:29.954Z,74.31
2024-01-20T16:17:57.489Z,75.64
2024-01-20T16:20:25.128Z,76.16
2024-01-20T16:22:52.595Z,74.82
2024-01-20T16:25:21.031Z,75.03
2024-01-20T16:27:48.707Z,73.21
2024-01-20T16:30:16.445Z,74.45
2024-01-20T16:32:43.762Z,74.51
2024-01-20T16:35:12.426Z,73.41
2024-01-20T16:37:39.945Z,74.56
2024-01-20T16:40:08.095Z,74.76
2024-01-20T16:42:35.436Z,73.04
2024-01-20T16:45:02.853Z,73.07
2024-01-20T16:47:30.345Z,73.48
2024-01-20T16:49:57.748Z,73.64
2024-01-20T16:52:25.070Z,74.04
2024-01-20T16:54:52.802Z,74.22
2024-01-20T16:57:20.678Z,73.51
2024-01-20T16:59:50.817Z,74.62
2024-01-20T17:02:19.236Z,75.51
2024-01-20T17:04:46.794Z,73.45
2024-01-20T17:07:14.258Z,74.91
2024-01-20T17:09:43.230Z,73.28
2024-01-20T17:12:10.942Z,73.48
2024-01-20T17:14:39.936Z,73.97
2024-01-20T17:17:07.620Z,74.99
2024-01-20T17:19:35.238Z,74.46
2024-01-20T17:22:02.789Z,73.91
2024-01-20T17:24:34.611Z,73.84
2024-01-20T17:27:03.520Z,73.15
2024-01-20T17:29:30.999Z,73.51
2024-01-20T17:32:02.068Z,73.95
2024-01-20T17:34:30.374Z,74.24
2024-01-20T17:37:00.400Z,74.30
2024-01-20T17:39:29.480Z,75.17
2024-01-20T17:41:59.048Z,74.05
2024-01-20T17:44:26.501Z,74.75
2024-01-20T17:46:54.979Z,74.63
2024-01-20T17:49:22.649Z,74.84
2024-01-20T17:51:50.252Z,74.23
2024-01-20T17:54:17.976Z,74.28
2024-01-20T17:56:45.356Z,75.44
2024-01-20T17:59:13.493Z,74.64
2024-01-20T18:01:41.064Z,75.36
2024-01-20T18:04:08.465Z,74.14
2024-01-20T18:06:35.891Z,74.85
2024-01-20T18:09:05.142Z,75.86
2024-01-20T18:11:32.637Z,74.27
2024-01-20T18:14:00.069Z,73.89
2024-01-20T18:16:27.406Z,73.83
2024-01-20T18:18:54.802Z,74.38
2024-01-20T18:21:22.697Z,76.55
2024-01-20T18:23:50.289Z,76.10
2024-01-20T18:26:17.625Z,76.39
2024-01-20T18:28:46.576Z,75.01
2024-01-20T18:31:14.084Z,74.41
2024-01-20T18:33:41.714Z,75.47
2024-01-20T18:36:09.598Z,75.96
2024-01-20T18:38:37.151Z,75.63
2024-01-20T18:41:04.640Z,73.81
2024-01-20T18:43:31.937Z,74.64
2024-01-20T18:45:59.378Z,74.79
2024-01-20T18:48:26.812Z,75.27
2024-01-20T18:50:54.549Z,74.98
2024-01-20T18:53:22.151Z,75.50
2024-01-20T18:55:49.609Z,75.53
2024-01-20T18:58:17.136Z,75.03
2024-01-20T19:00:44.571Z,74.70
2024-01-20T19:03:12.166Z,75.73
2024-01-20T19:05:39.617Z,75.14
2024-01-20T19:08:07.575Z,76.17
2024-01-20T19:10:36.328Z,77.42
2024-01-20T19:13:03.834Z,75.51
2024-01-20T19:15:31.333Z,76.23
2024-01-20T19:17:58.778Z,75.62
2024-01-20T19:20:26.177Z,76.54
2024-01-20T19:22:53.591Z,76.18
2024-01-20T19:25:20.907Z,77.92
2024-01-20T19:27:48.727Z,77.32
2024-01-20T19:30:16.559Z,77.15
2024-01-20T19:32:43.979Z,77.79
2024-01-20T19:35:11.459Z,79.21
2024-01-20T19:37:38.830Z,77.36
2024-01-20T19:40:07.112Z,79.72
2024-01-20T19:42:34.478Z,77.54
2024-01-20T19:45:01.954Z,79.94
2024-01-20T19:47:29.296Z,77.56
2024-01-20T19:49:56.744Z,79.73
2024-01-20T19:52:24.160Z,80.02
2024-01-20T19:54:51.614Z,77.59
2024-01-20T19:57:19.254Z,77.95
2024-01-20T19:59:46.616Z,79.62
2024-01-20T20:02:13.896Z,81.54
2024-01-20T20:04:41.364Z,78.57
2024-01-20T20:07:10.402Z,78.60
2024-01-20T20:09:38.973Z,80.44
2024-01-20T20:12:08.092Z,79.13
2024-01-20T20:14:35.858Z,81.82
2024-01-20T20:17:04.196Z,78.74
2024-01-20T20:19:33.139Z,76.70
2024-01-20T20:22:02.252Z,77.62
2024-01-20T20:24:29.654Z,77.49
2024-01-20T20:26:59.990Z,75.78
2024-01-20T20:29:29.029Z,77.02
2024-01-20T20:31:56.371Z,75.63
2024-01-20T20:34:24.364Z,76.10
2024-01-20T20:36:52.096Z,76.40
2024-01-20T20:39:19.439Z,74.90
2024-01-20T20:41:49.431Z,75.69
2024-01-20T20:44:16.895Z,74.76
2024-01-20T20:46:44.296Z,77.17
2024-01-20T20:49:11.843Z,74.30
2024-01-20T20:51:39.517Z,76.25
2024-01-20T20:54:06.906Z,76.60
2024-01-20T20:56:34.309Z,73.73
2024-01-20T20:59:01.669Z,73.11
2024-01-20T21:01:29.157Z,73.60
2024-01-20T21:03:57.202Z,75.31
2024-01-20T21:06:24.703Z,72.55
2024-01-20T21:08:52.223Z,73.54
2024-01-20T21:11:19.669Z,74.89
2024-01-20T21:13:47.151Z,74.01
2024-01-20T21:16:14.519Z,74.17
2024-01-20T21:18:41.846Z,73.92
2024-01-20T21:21:09.335Z,74.40
2024-01-20T21:23:36.776Z,73.19
2024-01-20T21:26:04.265Z,73.99
2024-01-20T21:28:31.722Z,74.73
2024-01-20T21:31:01.404Z,75.09
2024-01-20T21:33:28.974Z,74.34
2024-01-20T21:35:56.391Z,74.82
2024-01-20T21:38:23.784Z,73.03
2024-01-20T21:40:51.065Z,73.43
2024-01-20T21:43:18.362Z,74.77
2024-01-20T21:45:45.815Z,74.89
2024-01-20T21:48:15.156Z,74.75
2024-01-20T21:50:43.725Z,75.02
2024-01-20T21:53:11.489Z,74.47
2024-01-20T21:55:39.392Z,73.69
2024-01-20T21:58:06.778Z,74.54
2024-01-20T22:00:34.625Z,73.38
2024-01-20T22:03:02.035Z,76.18
2024-01-20T22:05:29.594Z,77.62
2024-01-20T22:08:00.306Z,76.82
2024-01-20T22:10:28.429Z,78.04
2024-01-20T22:12:56.460Z,77.50
2024-01-20T22:15:24.001Z,78.69
2024-01-20T22:17:52.125Z,78.48
2024-01-20T22:20:19.595Z,79.28
2024-01-20T22:22:47.045Z,78.98
2024-01-20T22:25:14.582Z,79.14
2024-01-20T22:27:42.125Z,78.73
2024-01-20T22:30:10.708Z,78.02
2024-01-20T22:32:42.388Z,82.04
2024-01-20T22:35:10.070Z,82.24
2024-01-20T22:37:37.816Z,79.76
2024-01-20T22:40:07.615Z,80.70
2024-01-20T22:42:36.082Z,79.27
2024-01-20T22:45:08.570Z,78.83
2024-01-20T22:47:36.346Z,80.06
2024-01-20T22:50:03.916Z,82.50
2024-01-20T22:52:31.270Z,81.91
2024-01-20T22:54:58.613Z,80.91
2024-01-20T22:57:25.965Z,78.99
2024-01-20T22:59:53.342Z,77.54
2024-01-20T23:02:22.024Z,79.67
2024-01-20T23:04:51.038Z,81.10
2024-01-20T23:07:19.106Z,82.37
2024-01-20T23:09:46.639Z,79.83
2024-01-20T23:12:14.799Z,79.86
2024-01-20T23:14:44.646Z,79.82
2024-01-20T23:17:12.641Z,79.40
2024-01-20T23:19:39.986Z,80.35
2024-01-20T23:22:07.514Z,82.39
2024-01-20T23:24:35.064Z,80.89
2024-01-20T23:27:02.641Z,80.58
2024-01-20T23:29:30.627Z,80.44
2024-01-20T23:31:57.980Z,80.57
2024-01-20T23:34:25.272Z,81.07
2024-01-20T23:36:52.974Z,80.21
2024-01-20T23:39:20.550Z,81.25
2024-01-20T23:41:47.938Z,82.12
2024-01-20T23:44:15.328Z,81.24
2024-01-20T23:46:42.668Z,81.02
2024-01-20T23:49:12.081Z,81.11
2024-01-20T23:51:39.598Z,82.09
2024-01-20T23:54:07.011Z,79.89
2024-01-20T23:56:34.490Z,80.17
2024-01-20T23:59:02.749Z,82.09
